createdAt,value
2019-01-14T00:00:20.506Z,4.29
2019-01-14T00:02:53.959Z,4.37
2019-01-14T00:05:25.526Z,4.36
2019-01-14T00:07:56.865Z,4.24
2019-01-14T00:10:28.182Z,4.28
2019-01-14T00:12:59.333Z,4.34
2019-01-14T00:15:30.477Z,4.21
2019-01-14T00:18:02.798Z,4.24
2019-01-14T00:20:33.984Z,4.20
2019-01-14T00:23:05.147Z,4.31
2019-01-14T00:25:36.266Z,4.27
2019-01-14T00:28:07.473Z,4.27
2019-01-14T00:30:38.448Z,4.24
2019-01-14T00:33:09.592Z,4.21
2019-01-14T00:35:40.659Z,4.32
2019-01-14T00:38:11.829Z,4.32
2019-01-14T00:40:42.873Z,4.32
2019-01-14T00:43:14.012Z,4.24
2019-01-14T00:45:45.294Z,4.23
2019-01-14T00:48:16.374Z,4.21
2019-01-14T00:50:47.519Z,4.21
2019-01-14T00:53:18.502Z,4.20
2019-01-14T00:55:49.493Z,4.17
2019-01-14T00:58:20.539Z,4.22
2019-01-14T01:00:51.755Z,4.18
2019-01-14T01:03:22.897Z,4.12
2019-01-14T01:05:53.927Z,4.13
2019-01-14T01:08:24.955Z,4.15
2019-01-14T01:10:56.042Z,4.13
2019-01-14T01:13:27.127Z,4.04
2019-01-14T01:15:58.314Z,4.07
2019-01-14T01:18:29.398Z,3.92
2019-01-14T01:21:00.606Z,3.82
2019-01-14T01:23:31.893Z,3.71
2019-01-14T01:26:02.881Z,3.73
2019-01-14T01:28:33.934Z,3.72
2019-01-14T01:31:05.108Z,3.63
2019-01-14T01:33:36.433Z,3.53
2019-01-14T01:36:07.731Z,3.48
2019-01-14T01:38:38.815Z,3.41
2019-01-14T01:41:09.964Z,3.51
2019-01-14T01:43:41.112Z,3.59
2019-01-14T01:46:12.251Z,3.50
2019-01-14T01:48:43.407Z,3.50
2019-01-14T01:51:14.546Z,3.40
2019-01-14T01:53:45.610Z,3.50
2019-01-14T01:56:16.905Z,3.37
2019-01-14T01:58:48.173Z,3.33
2019-01-14T02:01:19.227Z,3.32
2019-01-14T02:03:50.250Z,3.40
2019-01-14T02:06:21.358Z,3.32
2019-01-14T02:08:54.430Z,3.28
2019-01-14T02:11:25.537Z,3.30
2019-01-14T02:13:56.886Z,3.17
2019-01-14T02:16:27.999Z,3.18
2019-01-14T02:18:59.133Z,3.20
2019-01-14T02:21:30.264Z,3.23
2019-01-14T02:24:01.413Z,3.21
2019-01-14T02:26:32.446Z,3.19
2019-01-14T02:29:04.878Z,3.18
2019-01-14T02:31:35.915Z,3.25
2019-01-14T02:34:07.099Z,3.22
2019-01-14T02:36:38.147Z,3.21
2019-01-14T02:39:09.543Z,3.17
2019-01-14T02:41:40.691Z,3.30
2019-01-14T02:44:11.854Z,3.28
2019-01-14T02:46:43.133Z,3.32
2019-01-14T02:49:14.198Z,3.31
2019-01-14T02:51:45.284Z,3.36
2019-01-14T02:54:16.385Z,3.36
2019-01-14T02:56:47.505Z,3.41
2019-01-14T02:59:18.591Z,3.40
2019-01-14T03:01:49.662Z,3.36
2019-01-14T03:04:20.674Z,3.29
2019-01-14T03:06:57.770Z,3.31
2019-01-14T03:09:24.652Z,3.26
2019-01-14T03:11:55.725Z,3.33
2019-01-14T03:14:26.932Z,3.30
2019-01-14T03:16:58.051Z,3.35
2019-01-14T03:19:29.201Z,3.42
2019-01-14T03:22:00.315Z,3.39
2019-01-14T03:24:31.366Z,3.37
2019-01-14T03:27:02.479Z,3.42
2019-01-14T03:29:33.528Z,3.34
2019-01-14T03:32:04.652Z,3.32
2019-01-14T03:34:35.789Z,3.35
2019-01-14T03:37:06.913Z,3.36
2019-01-14T03:39:39.219Z,3.29
2019-01-14T03:42:10.270Z,3.35
2019-01-14T03:44:41.291Z,3.40
2019-01-14T03:47:12.597Z,3.41
2019-01-14T03:49:43.688Z,3.30
2019-01-14T03:52:14.740Z,3.30
2019-01-14T03:54:45.798Z,3.27
2019-01-14T03:57:16.911Z,3.29
2019-01-14T03:59:48.139Z,3.31
2019-01-14T04:02:19.259Z,3.36
2019-01-14T04:04:50.486Z,3.26
2019-01-14T04:07:21.540Z,3.30
2019-01-14T04:09:52.531Z,3.03
2019-01-14T04:12:24.682Z,3.27
2019-01-14T04:14:55.815Z,3.19
2019-01-14T04:17:26.870Z,3.16
2019-01-14T04:19:57.940Z,3.14
2019-01-14T04:22:28.987Z,3.18
2019-01-14T04:25:00.036Z,3.07
2019-01-14T04:27:31.136Z,3.21
2019-01-14T04:30:02.323Z,3.17
2019-01-14T04:32:33.414Z,3.11
2019-01-14T04:35:05.084Z,3.15
2019-01-14T04:37:36.221Z,3.10
2019-01-14T04:40:08.686Z,3.11
2019-01-14T04:42:40.095Z,3.11
2019-01-14T04:45:11.862Z,3.00
2019-01-14T04:47:42.982Z,3.02
2019-01-14T04:50:16.846Z,2.88
2019-01-14T04:52:48.050Z,2.88
2019-01-14T04:55:19.425Z,2.88
2019-01-14T04:57:50.447Z,2.93
2019-01-14T05:00:23.792Z,2.97
2019-01-14T05:02:54.931Z,3.02
2019-01-14T05:05:26.059Z,3.07
2019-01-14T05:07:57.179Z,3.10
2019-01-14T05:10:28.579Z,3.10
2019-01-14T05:12:59.699Z,3.10
2019-01-14T05:15:30.683Z,3.07
2019-01-14T05:18:01.649Z,3.07
2019-01-14T05:20:32.906Z,3.08
2019-01-14T05:23:04.060Z,3.11
2019-01-14T05:25:35.184Z,3.16
2019-01-14T05:28:06.619Z,3.15
2019-01-14T05:30:37.882Z,3.18
2019-01-14T05:33:09.012Z,3.02
2019-01-14T05:35:40.209Z,3.15
2019-01-14T05:38:11.338Z,3.11
2019-01-14T05:40:42.496Z,3.10
2019-01-14T05:43:13.522Z,3.10
2019-01-14T05:45:44.606Z,3.14
2019-01-14T05:48:15.765Z,3.04
2019-01-14T05:50:46.843Z,3.03
2019-01-14T05:53:17.957Z,3.10
2019-01-14T05:55:50.072Z,3.06
2019-01-14T05:58:21.117Z,2.99
2019-01-14T06:00:54.423Z,3.03
2019-01-14T06:03:25.542Z,2.92
2019-01-14T06:05:56.591Z,2.93
2019-01-14T06:08:27.719Z,3.02
2019-01-14T06:10:58.951Z,2.88
2019-01-14T06:13:30.079Z,2.84
2019-01-14T06:16:01.276Z,2.85
2019-01-14T06:18:32.314Z,2.86
2019-01-14T06:21:03.539Z,2.88
2019-01-14T06:23:34.735Z,2.79
2019-01-14T06:26:05.996Z,2.85
2019-01-14T06:28:38.095Z,2.86
2019-01-14T06:31:09.174Z,2.82
2019-01-14T06:33:40.570Z,3.00
2019-01-14T06:36:12.011Z,2.90
2019-01-14T06:38:43.253Z,2.95
2019-01-14T06:41:14.559Z,2.89
2019-01-14T06:43:45.684Z,2.94
2019-01-14T06:46:16.948Z,3.11
2019-01-14T06:48:48.059Z,2.93
2019-01-14T06:51:19.317Z,2.97
2019-01-14T06:53:50.296Z,2.98
2019-01-14T06:56:21.405Z,3.05
2019-01-14T06:58:52.370Z,3.02
2019-01-14T07:01:23.466Z,3.02
2019-01-14T07:03:54.509Z,2.93
2019-01-14T07:06:25.595Z,3.01
2019-01-14T07:08:56.836Z,2.99
2019-01-14T07:11:28.179Z,2.99
2019-01-14T07:13:59.445Z,2.94
2019-01-14T07:16:30.521Z,3.05
2019-01-14T07:19:01.618Z,2.98
2019-01-14T07:21:32.673Z,3.03
2019-01-14T07:24:03.847Z,3.03
2019-01-14T07:26:34.913Z,3.02
2019-01-14T07:29:07.193Z,3.11
2019-01-14T07:31:38.368Z,3.00
2019-01-14T07:34:09.482Z,3.08
2019-01-14T07:36:40.622Z,3.05
2019-01-14T07:39:11.794Z,2.97
2019-01-14T07:41:42.876Z,2.87
2019-01-14T07:44:13.915Z,2.88
2019-01-14T07:46:45.022Z,2.90
2019-01-14T07:49:16.015Z,2.86
2019-01-14T07:51:47.255Z,2.87
2019-01-14T07:54:18.249Z,2.87
2019-01-14T07:56:49.548Z,3.03
2019-01-14T07:59:20.597Z,3.16
2019-01-14T08:01:51.674Z,3.26
2019-01-14T08:04:22.827Z,3.08
2019-01-14T08:06:53.910Z,3.12
2019-01-14T08:09:24.977Z,3.21
2019-01-14T08:11:56.115Z,3.11
2019-01-14T08:14:27.216Z,2.99
2019-01-14T08:16:58.257Z,3.01
2019-01-14T08:19:29.328Z,3.00
2019-01-14T08:22:00.461Z,2.94
2019-01-14T08:24:31.608Z,2.99
2019-01-14T08:27:02.667Z,2.97
2019-01-14T08:29:33.787Z,3.17
2019-01-14T08:32:04.968Z,3.15
2019-01-14T08:34:36.102Z,3.10
2019-01-14T08:37:08.454Z,3.16
2019-01-14T08:39:40.822Z,3.21
2019-01-14T08:42:12.499Z,3.19
2019-01-14T08:44:44.340Z,3.31
2019-01-14T08:47:15.504Z,3.25
2019-01-14T08:49:46.569Z,3.31
2019-01-14T08:52:17.717Z,3.32
2019-01-14T08:54:48.700Z,3.28
2019-01-14T08:57:19.837Z,3.49
2019-01-14T08:59:50.806Z,3.64
2019-01-14T09:02:21.935Z,3.58
2019-01-14T09:04:53.037Z,3.45
2019-01-14T09:07:24.192Z,3.43
2019-01-14T09:09:55.253Z,3.52
2019-01-14T09:12:26.317Z,3.37
2019-01-14T09:14:58.371Z,3.39
2019-01-14T09:17:29.456Z,3.16
2019-01-14T09:20:00.695Z,3.05
2019-01-14T09:22:31.808Z,3.06
2019-01-14T09:25:02.905Z,3.26
2019-01-14T09:27:34.067Z,2.96
2019-01-14T09:30:08.376Z,2.94
2019-01-14T09:32:39.540Z,2.87
2019-01-14T09:35:10.692Z,2.96
2019-01-14T09:37:41.944Z,2.88
2019-01-14T09:40:15.199Z,2.99
2019-01-14T09:42:46.349Z,2.91
2019-01-14T09:45:17.479Z,3.16
2019-01-14T09:47:48.641Z,3.10
2019-01-14T09:50:19.712Z,2.95
2019-01-14T09:52:50.858Z,2.88
2019-01-14T09:55:22.062Z,2.97
2019-01-14T09:57:53.226Z,3.00
2019-01-14T10:00:24.359Z,3.19
2019-01-14T10:02:55.778Z,3.23
2019-01-14T10:05:26.786Z,2.97
2019-01-14T10:07:57.855Z,3.00
2019-01-14T10:10:28.978Z,3.07
2019-01-14T10:13:00.135Z,3.17
2019-01-14T10:15:31.227Z,3.09
2019-01-14T10:18:04.708Z,3.02
2019-01-14T10:20:35.766Z,2.93
2019-01-14T10:23:06.915Z,2.92
2019-01-14T10:25:38.003Z,2.97
2019-01-14T10:28:09.165Z,3.14
2019-01-14T10:30:40.543Z,2.93
2019-01-14T10:33:11.704Z,2.97
2019-01-14T10:35:42.893Z,2.90
2019-01-14T10:38:13.985Z,3.23
2019-01-14T10:40:45.119Z,3.11
2019-01-14T10:43:16.267Z,2.97
2019-01-14T10:45:47.430Z,2.75
2019-01-14T10:48:18.507Z,2.86
2019-01-14T10:50:49.628Z,2.99
2019-01-14T10:53:20.780Z,2.88
2019-01-14T10:55:51.895Z,2.72
2019-01-14T10:58:23.099Z,2.84
2019-01-14T11:00:54.094Z,2.67
2019-01-14T11:03:25.278Z,2.70
2019-01-14T11:05:56.259Z,2.85
2019-01-14T11:08:27.449Z,2.96
2019-01-14T11:10:58.619Z,2.75
2019-01-14T11:13:29.820Z,2.88
2019-01-14T11:16:00.876Z,2.60
2019-01-14T11:18:32.149Z,2.68
2019-01-14T11:21:03.295Z,2.77
2019-01-14T11:23:34.484Z,2.88
2019-01-14T11:26:11.153Z,2.79
2019-01-14T11:28:42.295Z,2.86
2019-01-14T11:31:13.413Z,3.04
2019-01-14T11:33:44.550Z,2.75
2019-01-14T11:36:15.669Z,2.94
2019-01-14T11:38:51.359Z,2.95
2019-01-14T11:41:23.812Z,3.18
2019-01-14T11:43:54.959Z,3.19
2019-01-14T11:46:26.001Z,3.00
2019-01-14T11:48:57.048Z,2.83
2019-01-14T11:51:28.103Z,2.91
2019-01-14T11:53:59.109Z,2.77
2019-01-14T11:56:30.223Z,2.92
2019-01-14T11:59:01.377Z,2.93
2019-01-14T12:01:32.523Z,2.93
2019-01-14T12:04:03.743Z,3.21
2019-01-14T12:06:34.781Z,2.96
2019-01-14T12:09:12.395Z,3.08
2019-01-14T12:11:43.699Z,2.97
2019-01-14T12:14:14.684Z,2.94
2019-01-14T12:16:45.732Z,3.04
2019-01-14T12:19:16.737Z,2.96
2019-01-14T12:21:47.877Z,3.02
2019-01-14T12:24:19.016Z,2.96
2019-01-14T12:26:50.201Z,2.83
2019-01-14T12:29:21.422Z,2.95
2019-01-14T12:31:52.484Z,2.96
2019-01-14T12:34:23.639Z,2.93
2019-01-14T12:36:54.765Z,2.78
2019-01-14T12:39:25.842Z,2.63
2019-01-14T12:41:56.935Z,2.62
2019-01-14T12:44:28.028Z,2.64
2019-01-14T12:46:59.171Z,2.82
2019-01-14T12:49:30.148Z,2.69
2019-01-14T12:52:01.353Z,2.72
2019-01-14T12:54:32.593Z,2.71
2019-01-14T12:57:03.673Z,2.64
2019-01-14T12:59:34.719Z,2.68
2019-01-14T13:02:05.795Z,2.71
2019-01-14T13:04:36.969Z,2.65
2019-01-14T13:07:08.135Z,2.58
2019-01-14T13:09:39.237Z,2.61
2019-01-14T13:12:10.384Z,2.75
2019-01-14T13:14:41.464Z,2.82
2019-01-14T13:17:12.577Z,2.71
2019-01-14T13:19:44.707Z,2.82
2019-01-14T13:22:15.816Z,2.70
2019-01-14T13:24:46.806Z,2.82
2019-01-14T13:27:17.961Z,2.93
2019-01-14T13:29:49.060Z,2.71
2019-01-14T13:32:20.190Z,2.83
2019-01-14T13:34:51.258Z,2.71
2019-01-14T13:37:22.337Z,2.72
2019-01-14T13:39:53.479Z,2.72
2019-01-14T13:42:24.447Z,2.68
2019-01-14T13:44:55.437Z,2.80
2019-01-14T13:47:26.490Z,2.94
2019-01-14T13:49:57.567Z,2.63
2019-01-14T13:52:28.562Z,2.08
2019-01-14T13:54:59.621Z,1.84
2019-01-14T13:57:30.723Z,1.51
2019-01-14T14:00:01.824Z,1.47
2019-01-14T14:02:33.851Z,1.49
2019-01-14T14:05:06.019Z,1.52
2019-01-14T14:07:37.200Z,1.33
2019-01-14T14:10:11.460Z,1.35
2019-01-14T14:12:42.651Z,1.34
2019-01-14T14:15:15.273Z,1.31
2019-01-14T14:17:46.402Z,1.29
2019-01-14T14:20:17.595Z,1.23
2019-01-14T14:22:48.974Z,1.24
2019-01-14T14:25:20.136Z,1.28
2019-01-14T14:27:51.190Z,1.25
2019-01-14T14:30:31.099Z,1.20
2019-01-14T14:33:02.305Z,1.08
2019-01-14T14:35:33.434Z,1.04
2019-01-14T14:38:05.759Z,0.92
2019-01-14T14:40:36.807Z,0.95
2019-01-14T14:43:07.961Z,0.90
2019-01-14T14:45:39.154Z,0.94
2019-01-14T14:48:10.247Z,0.82
2019-01-14T14:50:41.295Z,0.75
2019-01-14T14:53:13.346Z,0.78
2019-01-14T14:55:44.423Z,1.01
2019-01-14T14:58:15.576Z,1.04
2019-01-14T15:00:46.711Z,1.04
2019-01-14T15:03:17.791Z,0.93
2019-01-14T15:05:48.873Z,0.91
2019-01-14T15:08:19.917Z,0.97
2019-01-14T15:10:51.308Z,0.90
2019-01-14T15:13:22.333Z,1.18
2019-01-14T15:15:53.479Z,1.11
2019-01-14T15:18:24.552Z,1.01
2019-01-14T15:20:55.664Z,0.95
2019-01-14T15:23:26.648Z,0.96
2019-01-14T15:25:57.636Z,1.37
2019-01-14T15:28:28.631Z,1.44
2019-01-14T15:30:59.731Z,1.24
2019-01-14T15:33:30.767Z,1.31
2019-01-14T15:36:01.774Z,1.34
2019-01-14T15:38:32.912Z,1.27
2019-01-14T15:41:04.068Z,1.20
2019-01-14T15:43:35.389Z,1.35
2019-01-14T15:46:06.577Z,1.14
2019-01-14T15:48:37.558Z,1.17
2019-01-14T15:51:08.619Z,1.18
2019-01-14T15:53:39.679Z,1.14
2019-01-14T15:56:10.798Z,1.11
2019-01-14T15:58:41.919Z,1.16
2019-01-14T16:01:13.025Z,1.05
2019-01-14T16:03:44.070Z,1.04
2019-01-14T16:06:15.155Z,1.08
2019-01-14T16:08:46.289Z,1.17
2019-01-14T16:11:17.395Z,1.06
2019-01-14T16:13:48.498Z,1.05
2019-01-14T16:16:19.670Z,1.13
2019-01-14T16:18:50.792Z,1.16
2019-01-14T16:21:21.833Z,1.08
2019-01-14T16:23:52.976Z,1.05
2019-01-14T16:26:24.043Z,1.11
2019-01-14T16:28:55.087Z,1.10
2019-01-14T16:31:26.081Z,1.07
2019-01-14T16:33:57.068Z,1.15
2019-01-14T16:36:28.215Z,1.04
2019-01-14T16:38:59.344Z,1.02
2019-01-14T16:41:30.483Z,0.95
2019-01-14T16:44:01.616Z,0.93
2019-01-14T16:46:32.782Z,1.02
2019-01-14T16:49:03.828Z,0.98
2019-01-14T16:51:34.932Z,0.94
2019-01-14T16:54:06.057Z,0.93
2019-01-14T16:56:37.095Z,0.96
2019-01-14T16:59:08.232Z,0.86
2019-01-14T17:01:39.230Z,0.80
2019-01-14T17:04:10.274Z,0.76
2019-01-14T17:06:41.426Z,0.80
2019-01-14T17:09:12.583Z,0.79
2019-01-14T17:11:43.650Z,0.70
2019-01-14T17:14:15.942Z,0.70
2019-01-14T17:16:47.112Z,0.70
2019-01-14T17:19:18.246Z,0.64
2019-01-14T17:21:49.244Z,0.54
2019-01-14T17:24:20.231Z,0.55
2019-01-14T17:26:51.394Z,0.51
2019-01-14T17:29:22.486Z,0.57
2019-01-14T17:31:53.488Z,0.51
2019-01-14T17:34:24.545Z,0.49
2019-01-14T17:36:56.054Z,0.54
2019-01-14T17:39:27.124Z,0.37
2019-01-14T17:41:58.856Z,0.42
2019-01-14T17:44:29.993Z,0.33
2019-01-14T17:47:00.997Z,0.43
2019-01-14T17:49:32.054Z,0.33
2019-01-14T17:52:03.220Z,0.30
2019-01-14T17:54:34.353Z,0.27
2019-01-14T17:57:05.537Z,0.31
2019-01-14T17:59:36.679Z,0.27
2019-01-14T18:02:07.851Z,0.14
2019-01-14T18:04:39.046Z,0.18
2019-01-14T18:07:10.186Z,0.18
2019-01-14T18:09:41.175Z,0.34
2019-01-14T18:12:12.289Z,0.09
2019-01-14T18:14:43.401Z,0.20
2019-01-14T18:17:14.494Z,0.13
2019-01-14T18:19:46.048Z,0.14
2019-01-14T18:22:17.123Z,0.15
2019-01-14T18:24:48.180Z,0.22
2019-01-14T18:27:19.266Z,0.21
2019-01-14T18:29:50.351Z,0.20
2019-01-14T18:32:21.423Z,0.22
2019-01-14T18:34:52.564Z,0.28
2019-01-14T18:37:23.655Z,0.29
2019-01-14T18:39:54.783Z,0.28
2019-01-14T18:42:25.940Z,0.39
2019-01-14T18:44:56.983Z,0.35
2019-01-14T18:47:28.239Z,0.57
2019-01-14T18:49:59.266Z,0.55
2019-01-14T18:52:30.350Z,0.60
2019-01-14T18:55:01.403Z,0.65
2019-01-14T18:57:32.577Z,0.72
2019-01-14T19:00:04.748Z,0.60
2019-01-14T19:02:35.742Z,0.66
2019-01-14T19:05:07.120Z,0.66
2019-01-14T19:07:39.364Z,0.67
2019-01-14T19:10:10.960Z,0.69
2019-01-14T19:12:42.193Z,0.78
2019-01-14T19:15:15.199Z,0.72
2019-01-14T19:17:46.534Z,0.77
2019-01-14T19:20:23.233Z,0.74
2019-01-14T19:22:55.457Z,0.84
2019-01-14T19:25:26.696Z,0.79
2019-01-14T19:27:57.678Z,0.89
2019-01-14T19:30:28.828Z,0.77
2019-01-14T19:33:01.062Z,0.77
2019-01-14T19:35:33.099Z,0.78
2019-01-14T19:38:04.326Z,0.89
2019-01-14T19:40:35.459Z,0.92
2019-01-14T19:43:06.767Z,0.95
2019-01-14T19:45:37.891Z,1.36
2019-01-14T19:48:09.104Z,1.07
2019-01-14T19:50:40.200Z,0.97
2019-01-14T19:53:11.296Z,1.00
2019-01-14T19:55:42.421Z,0.95
2019-01-14T19:58:13.553Z,0.96
2019-01-14T20:00:44.649Z,0.95
2019-01-14T20:03:15.747Z,0.99
2019-01-14T20:05:46.887Z,1.11
2019-01-14T20:08:19.347Z,1.10
2019-01-14T20:10:50.415Z,1.04
2019-01-14T20:13:21.550Z,1.02
2019-01-14T20:15:52.615Z,0.99
2019-01-14T20:18:23.789Z,0.95
2019-01-14T20:20:54.876Z,0.81
2019-01-14T20:23:26.106Z,0.78
2019-01-14T20:25:57.186Z,0.89
2019-01-14T20:28:28.278Z,0.92
2019-01-14T20:30:59.280Z,0.84
2019-01-14T20:33:30.449Z,0.98
2019-01-14T20:36:01.577Z,0.99
2019-01-14T20:38:32.656Z,0.91
2019-01-14T20:41:04.076Z,0.91
2019-01-14T20:43:35.209Z,0.85
2019-01-14T20:46:06.328Z,0.94
2019-01-14T20:48:37.332Z,0.89
2019-01-14T20:51:08.460Z,0.84
2019-01-14T20:53:39.550Z,0.87
2019-01-14T20:56:10.843Z,0.73
2019-01-14T20:58:41.979Z,0.88
2019-01-14T21:01:13.027Z,0.91
2019-01-14T21:03:44.112Z,0.79
2019-01-14T21:06:15.245Z,0.88
2019-01-14T21:08:46.352Z,0.94
2019-01-14T21:11:23.810Z,0.88
2019-01-14T21:13:50.314Z,0.86
2019-01-14T21:16:21.370Z,0.95
2019-01-14T21:18:52.563Z,0.83
2019-01-14T21:21:23.688Z,0.89
2019-01-14T21:23:54.698Z,1.03
2019-01-14T21:26:25.857Z,1.00
2019-01-14T21:28:56.840Z,0.93
2019-01-14T21:31:27.909Z,0.36
2019-01-14T21:33:59.001Z,0.12
2019-01-14T21:36:30.121Z,0.25
2019-01-14T21:39:01.211Z,0.34
2019-01-14T21:41:33.392Z,0.38
2019-01-14T21:44:04.714Z,0.33
2019-01-14T21:46:35.871Z,0.31
2019-01-14T21:49:06.935Z,0.37
2019-01-14T21:51:38.065Z,0.34
2019-01-14T21:54:09.218Z,0.26
2019-01-14T21:56:40.354Z,0.40
2019-01-14T21:59:11.466Z,0.36
2019-01-14T22:01:42.530Z,0.35
2019-01-14T22:04:14.677Z,0.27
2019-01-14T22:06:45.785Z,0.43
2019-01-14T22:09:16.775Z,0.42
2019-01-14T22:11:47.857Z,0.42
2019-01-14T22:14:19.049Z,0.60
2019-01-14T22:16:50.057Z,0.59
2019-01-14T22:19:21.123Z,0.61
2019-01-14T22:21:52.124Z,0.60
2019-01-14T22:24:23.136Z,0.53
2019-01-14T22:26:54.198Z,0.57
2019-01-14T22:29:25.356Z,0.66
2019-01-14T22:31:56.457Z,0.60
2019-01-14T22:34:27.460Z,0.54
2019-01-14T22:36:58.451Z,0.51
2019-01-14T22:39:29.461Z,0.52
2019-01-14T22:42:00.559Z,0.47
2019-01-14T22:44:31.640Z,0.48
2019-01-14T22:47:02.808Z,0.41
2019-01-14T22:49:33.816Z,0.39
2019-01-14T22:52:05.070Z,0.49
2019-01-14T22:54:36.113Z,0.49
2019-01-14T22:57:07.109Z,0.52
2019-01-14T22:59:38.144Z,0.61
2019-01-14T23:02:09.885Z,0.80
2019-01-14T23:04:40.963Z,0.69
2019-01-14T23:07:11.951Z,0.65
2019-01-14T23:09:43.116Z,0.57
2019-01-14T23:12:14.184Z,0.68
2019-01-14T23:14:45.254Z,0.59
2019-01-14T23:17:16.323Z,0.44
2019-01-14T23:19:47.559Z,-0.03
2019-01-14T23:22:18.619Z,0.07
2019-01-14T23:24:50.549Z,0.05
2019-01-14T23:27:21.724Z,0.20
2019-01-14T23:29:52.752Z,0.11
2019-01-14T23:32:23.830Z,0.13
2019-01-14T23:34:54.993Z,0.22
2019-01-14T23:37:26.048Z,0.10
2019-01-14T23:39:57.038Z,0.13
2019-01-14T23:42:28.234Z,0.21
2019-01-14T23:44:59.332Z,0.18
2019-01-14T23:47:30.387Z,0.18
2019-01-14T23:50:01.448Z,0.19
2019-01-14T23:52:32.497Z,0.18
2019-01-14T23:55:03.634Z,0.13
2019-01-14T23:57:34.687Z,0.17
